Sutton, Canada
Current Conditions -  °F | °C
As of 8:15 AM on Wednesday 22 Oct 2014 (Local Time) from KEFK Reporting Station
Light Rain Light Rain  
Wind Chill: 35°   Ceiling: 300
Heat Index: 41°   Visibility: 7mi
Dew Point: 41°   Wind: 12mph
Humidity: 97%   Direction: 350°N
Pressure: 30.21"   Gusts: NA
Location:  45.11°N, 72.62°W
Report Text: KEFK 221215Z AUTO 35010KT 7SM -RA OVC003 05/05 A3021 RMK AO2 T00520048
Loading
Personal Weather Stations






























Interactive Weather Map
Tropical Storm Tracking
New forecast layout! Learn more

10-Day Weather Forecast

Advertisements
Track Severe Weather on mobile